sensor_id;sensor_type;location;lat;lon;timestamp;temperature;humidity
16871;DHT22;8552;48.120;-1.456;2023-04-24T00:00:08;9.40;99.90
16871;DHT22;8552;48.120;-1.456;2023-04-24T00:02:44;9.40;99.90
16871;DHT22;8552;48.120;-1.456;2023-04-24T00:05:16;9.40;99.90
16871;DHT22;8552;48.120;-1.456;2023-04-24T00:07:44;9.40;99.90
16871;DHT22;8552;48.120;-1.456;2023-04-24T00:10:11;9.40;99.90
16871;DHT22;8552;48.120;-1.456;2023-04-24T00:12:37;9.40;99.90
16871;DHT22;8552;48.120;-1.456;2023-04-24T00:15:03;9.40;99.90
16871;DHT22;8552;48.120;-1.456;2023-04-24T00:17:29;9.30;99.90
16871;DHT22;8552;48.120;-1.456;2023-04-24T00:19:56;9.30;99.90
16871;DHT22;8552;48.120;-1.456;2023-04-24T00:22:28;9.30;99.90
16871;DHT22;8552;48.120;-1.456;2023-04-24T00:24:54;9.30;99.90
16871;DHT22;8552;48.120;-1.456;2023-04-24T00:27:20;9.30;99.90
16871;DHT22;8552;48.120;-1.456;2023-04-24T00:29:46;9.30;99.90
16871;DHT22;8552;48.120;-1.456;2023-04-24T00:32:12;9.30;99.90
16871;DHT22;8552;48.120;-1.456;2023-04-24T00:34:37;9.30;99.90
16871;DHT22;8552;48.120;-1.456;2023-04-24T00:37:03;9.30;99.90
16871;DHT22;8552;48.120;-1.456;2023-04-24T00:39:29;9.30;99.90
16871;DHT22;8552;48.120;-1.456;2023-04-24T00:41:55;9.30;99.90
16871;DHT22;8552;48.120;-1.456;2023-04-24T00:44:22;9.20;99.90
16871;DHT22;8552;48.120;-1.456;2023-04-24T00:46:49;9.20;99.90
16871;DHT22;8552;48.120;-1.456;2023-04-24T00:49:18;9.20;99.90
16871;DHT22;8552;48.120;-1.456;2023-04-24T00:51:44;9.20;99.90
16871;DHT22;8552;48.120;-1.456;2023-04-24T00:54:12;9.20;99.90
16871;DHT22;8552;48.120;-1.456;2023-04-24T00:56:37;9.10;99.90
16871;DHT22;8552;48.120;-1.456;2023-04-24T00:59:03;9.10;99.90
16871;DHT22;8552;48.120;-1.456;2023-04-24T01:01:30;9.10;99.90
16871;DHT22;8552;48.120;-1.456;2023-04-24T01:03:57;9.10;99.90
16871;DHT22;8552;48.120;-1.456;2023-04-24T01:06:23;9.10;99.90
16871;DHT22;8552;48.120;-1.456;2023-04-24T01:08:53;9.10;99.90
16871;DHT22;8552;48.120;-1.456;2023-04-24T01:11:19;9.10;99.90
16871;DHT22;8552;48.120;-1.456;2023-04-24T01:13:46;9.10;99.90
16871;DHT22;8552;48.120;-1.456;2023-04-24T01:16:13;9.10;99.90
16871;DHT22;8552;48.120;-1.456;2023-04-24T01:18:39;9.10;99.90
16871;DHT22;8552;48.120;-1.456;2023-04-24T01:21:06;9.10;99.90
16871;DHT22;8552;48.120;-1.456;2023-04-24T01:23:34;9.10;99.90
16871;DHT22;8552;48.120;-1.456;2023-04-24T01:26:00;9.10;99.90
16871;DHT22;8552;48.120;-1.456;2023-04-24T01:28:26;9.10;99.90
16871;DHT22;8552;48.120;-1.456;2023-04-24T01:30:52;9.10;99.90
16871;DHT22;8552;48.120;-1.456;2023-04-24T01:33:21;9.10;99.90
16871;DHT22;8552;48.120;-1.456;2023-04-24T01:35:47;9.10;99.90
16871;DHT22;8552;48.120;-1.456;2023-04-24T01:38:13;9.10;99.90
16871;DHT22;8552;48.120;-1.456;2023-04-24T01:40:40;9.00;99.90
16871;DHT22;8552;48.120;-1.456;2023-04-24T01:43:05;9.00;99.90
16871;DHT22;8552;48.120;-1.456;2023-04-24T01:45:31;9.00;99.90
16871;DHT22;8552;48.120;-1.456;2023-04-24T01:47:57;9.00;99.90
16871;DHT22;8552;48.120;-1.456;2023-04-24T01:50:23;9.00;99.90
16871;DHT22;8552;48.120;-1.456;2023-04-24T01:52:49;9.00;99.90
16871;DHT22;8552;48.120;-1.456;2023-04-24T01:55:14;9.00;99.90
16871;DHT22;8552;48.120;-1.456;2023-04-24T01:57:40;9.00;99.90
16871;DHT22;8552;48.120;-1.456;2023-04-24T02:00:06;9.00;99.90
16871;DHT22;8552;48.120;-1.456;2023-04-24T02:02:33;9.00;99.90
16871;DHT22;8552;48.120;-1.456;2023-04-24T02:04:59;9.00;99.90
16871;DHT22;8552;48.120;-1.456;2023-04-24T02:07:24;9.00;99.90
16871;DHT22;8552;48.120;-1.456;2023-04-24T02:09:50;8.90;99.90
16871;DHT22;8552;48.120;-1.456;2023-04-24T02:12:16;8.90;99.90
16871;DHT22;8552;48.120;-1.456;2023-04-24T02:14:43;8.90;99.90
16871;DHT22;8552;48.120;-1.456;2023-04-24T02:17:09;9.00;99.90
16871;DHT22;8552;48.120;-1.456;2023-04-24T02:19:35;9.00;99.90
16871;DHT22;8552;48.120;-1.456;2023-04-24T02:22:01;8.90;99.90
16871;DHT22;8552;48.120;-1.456;2023-04-24T02:24:26;9.00;99.90
16871;DHT22;8552;48.120;-1.456;2023-04-24T02:26:52;9.00;99.90
16871;DHT22;8552;48.120;-1.456;2023-04-24T02:29:18;9.00;99.90
16871;DHT22;8552;48.120;-1.456;2023-04-24T02:31:43;8.90;99.90
16871;DHT22;8552;48.120;-1.456;2023-04-24T02:34:09;8.90;99.90
16871;DHT22;8552;48.120;-1.456;2023-04-24T02:36:35;9.00;99.90
16871;DHT22;8552;48.120;-1.456;2023-04-24T02:39:01;8.90;99.90
16871;DHT22;8552;48.120;-1.456;2023-04-24T02:41:27;9.00;99.90
16871;DHT22;8552;48.120;-1.456;2023-04-24T02:43:57;8.90;99.90
16871;DHT22;8552;48.120;-1.456;2023-04-24T02:46:23;8.90;99.90
16871;DHT22;8552;48.120;-1.456;2023-04-24T02:48:49;8.90;99.90
16871;DHT22;8552;48.120;-1.456;2023-04-24T02:51:15;8.90;99.90
16871;DHT22;8552;48.120;-1.456;2023-04-24T02:53:40;8.90;99.90
16871;DHT22;8552;48.120;-1.456;2023-04-24T02:56:06;8.90;99.90
16871;DHT22;8552;48.120;-1.456;2023-04-24T02:58:32;8.90;99.90
16871;DHT22;8552;48.120;-1.456;2023-04-24T03:00:58;8.80;99.90
16871;DHT22;8552;48.120;-1.456;2023-04-24T03:03:24;8.80;99.90
16871;DHT22;8552;48.120;-1.456;2023-04-24T03:05:50;8.90;99.90
16871;DHT22;8552;48.120;-1.456;2023-04-24T03:08:16;8.90;99.90
16871;DHT22;8552;48.120;-1.456;2023-04-24T03:10:42;8.90;99.90
16871;DHT22;8552;48.120;-1.456;2023-04-24T03:13:07;8.80;99.90
16871;DHT22;8552;48.120;-1.456;2023-04-24T03:15:33;8.80;99.90
16871;DHT22;8552;48.120;-1.456;2023-04-24T03:17:58;8.80;99.90
16871;DHT22;8552;48.120;-1.456;2023-04-24T03:20:26;8.80;99.90
16871;DHT22;8552;48.120;-1.456;2023-04-24T03:22:51;8.80;99.90
16871;DHT22;8552;48.120;-1.456;2023-04-24T03:25:17;8.80;99.90
16871;DHT22;8552;48.120;-1.456;2023-04-24T03:27:43;8.80;99.90
16871;DHT22;8552;48.120;-1.456;2023-04-24T03:30:09;8.80;99.90
16871;DHT22;8552;48.120;-1.456;2023-04-24T03:32:35;8.80;99.90
16871;DHT22;8552;48.120;-1.456;2023-04-24T03:35:01;8.80;99.90
16871;DHT22;8552;48.120;-1.456;2023-04-24T03:37:27;8.80;99.90
16871;DHT22;8552;48.120;-1.456;2023-04-24T03:39:53;8.80;99.90
16871;DHT22;8552;48.120;-1.456;2023-04-24T03:42:18;8.70;99.90
16871;DHT22;8552;48.120;-1.456;2023-04-24T03:44:44;8.70;99.90
16871;DHT22;8552;48.120;-1.456;2023-04-24T03:47:10;8.70;99.90
16871;DHT22;8552;48.120;-1.456;2023-04-24T03:49:35;8.70;99.90
16871;DHT22;8552;48.120;-1.456;2023-04-24T03:52:01;8.70;99.90
16871;DHT22;8552;48.120;-1.456;2023-04-24T03:54:27;8.70;99.90
16871;DHT22;8552;48.120;-1.456;2023-04-24T03:56:52;8.70;99.90
16871;DHT22;8552;48.120;-1.456;2023-04-24T03:59:18;8.70;99.90
16871;DHT22;8552;48.120;-1.456;2023-04-24T04:01:44;8.70;99.90
16871;DHT22;8552;48.120;-1.456;2023-04-24T04:04:11;8.70;99.90
16871;DHT22;8552;48.120;-1.456;2023-04-24T04:06:36;8.70;99.90
16871;DHT22;8552;48.120;-1.456;2023-04-24T04:09:02;8.70;99.90
16871;DHT22;8552;48.120;-1.456;2023-04-24T04:11:28;8.70;99.90
16871;DHT22;8552;48.120;-1.456;2023-04-24T04:13:54;8.70;99.90
16871;DHT22;8552;48.120;-1.456;2023-04-24T04:16:20;8.70;99.90
16871;DHT22;8552;48.120;-1.456;2023-04-24T04:18:45;8.70;99.90
16871;DHT22;8552;48.120;-1.456;2023-04-24T04:21:11;8.70;99.90
16871;DHT22;8552;48.120;-1.456;2023-04-24T04:23:37;8.70;99.90
16871;DHT22;8552;48.120;-1.456;2023-04-24T04:26:03;8.70;99.90
16871;DHT22;8552;48.120;-1.456;2023-04-24T04:28:29;8.70;99.90
16871;DHT22;8552;48.120;-1.456;2023-04-24T04:30:58;8.70;99.90
16871;DHT22;8552;48.120;-1.456;2023-04-24T04:33:24;8.70;99.90
16871;DHT22;8552;48.120;-1.456;2023-04-24T04:35:51;8.70;99.90
16871;DHT22;8552;48.120;-1.456;2023-04-24T04:38:22;8.70;99.90
16871;DHT22;8552;48.120;-1.456;2023-04-24T04:40:47;8.70;99.90
16871;DHT22;8552;48.120;-1.456;2023-04-24T04:43:13;8.70;99.90
16871;DHT22;8552;48.120;-1.456;2023-04-24T04:45:40;8.70;99.90
16871;DHT22;8552;48.120;-1.456;2023-04-24T04:48:06;8.70;99.90
16871;DHT22;8552;48.120;-1.456;2023-04-24T04:50:37;8.70;99.90
16871;DHT22;8552;48.120;-1.456;2023-04-24T04:53:04;8.70;99.90
16871;DHT22;8552;48.120;-1.456;2023-04-24T04:55:30;8.70;99.90
16871;DHT22;8552;48.120;-1.456;2023-04-24T04:57:56;8.70;99.90
16871;DHT22;8552;48.120;-1.456;2023-04-24T05:00:22;8.70;99.90
16871;DHT22;8552;48.120;-1.456;2023-04-24T05:02:51;8.70;99.90
16871;DHT22;8552;48.120;-1.456;2023-04-24T05:05:17;8.70;99.90
16871;DHT22;8552;48.120;-1.456;2023-04-24T05:07:43;8.70;99.90
16871;DHT22;8552;48.120;-1.456;2023-04-24T05:10:09;8.70;99.90
16871;DHT22;8552;48.120;-1.456;2023-04-24T05:12:36;8.70;99.90
16871;DHT22;8552;48.120;-1.456;2023-04-24T05:15:01;8.70;99.90
16871;DHT22;8552;48.120;-1.456;2023-04-24T05:17:28;8.70;99.90
16871;DHT22;8552;48.120;-1.456;2023-04-24T05:19:54;8.70;99.90
16871;DHT22;8552;48.120;-1.456;2023-04-24T05:22:19;8.70;99.90
16871;DHT22;8552;48.120;-1.456;2023-04-24T05:24:47;8.70;99.90
16871;DHT22;8552;48.120;-1.456;2023-04-24T05:27:13;8.70;99.90
16871;DHT22;8552;48.120;-1.456;2023-04-24T05:29:39;8.70;99.90
16871;DHT22;8552;48.120;-1.456;2023-04-24T05:32:06;8.70;99.90
16871;DHT22;8552;48.120;-1.456;2023-04-24T05:34:32;8.70;99.90
16871;DHT22;8552;48.120;-1.456;2023-04-24T05:36:57;8.80;99.90
16871;DHT22;8552;48.120;-1.456;2023-04-24T05:39:23;8.80;99.90
16871;DHT22;8552;48.120;-1.456;2023-04-24T05:41:50;8.80;99.90
16871;DHT22;8552;48.120;-1.456;2023-04-24T05:44:16;8.80;99.90
16871;DHT22;8552;48.120;-1.456;2023-04-24T05:46:42;8.80;99.90
16871;DHT22;8552;48.120;-1.456;2023-04-24T05:49:08;8.80;99.90
16871;DHT22;8552;48.120;-1.456;2023-04-24T05:51:33;8.80;99.90
16871;DHT22;8552;48.120;-1.456;2023-04-24T05:53:59;8.90;99.90
16871;DHT22;8552;48.120;-1.456;2023-04-24T05:56:25;8.90;99.90
16871;DHT22;8552;48.120;-1.456;2023-04-24T05:58:50;8.90;99.90
16871;DHT22;8552;48.120;-1.456;2023-04-24T06:01:16;8.90;99.90
16871;DHT22;8552;48.120;-1.456;2023-04-24T06:03:42;9.00;99.90
16871;DHT22;8552;48.120;-1.456;2023-04-24T06:06:08;9.00;99.90
16871;DHT22;8552;48.120;-1.456;2023-04-24T06:08:35;9.00;99.90
16871;DHT22;8552;48.120;-1.456;2023-04-24T06:11:01;9.10;99.90
16871;DHT22;8552;48.120;-1.456;2023-04-24T06:13:26;9.10;99.90
16871;DHT22;8552;48.120;-1.456;2023-04-24T06:15:52;9.10;99.90
16871;DHT22;8552;48.120;-1.456;2023-04-24T06:18:18;9.10;99.90
16871;DHT22;8552;48.120;-1.456;2023-04-24T06:20:45;9.10;99.90
16871;DHT22;8552;48.120;-1.456;2023-04-24T06:23:16;9.10;99.90
16871;DHT22;8552;48.120;-1.456;2023-04-24T06:25:49;9.10;99.90
16871;DHT22;8552;48.120;-1.456;2023-04-24T06:28:18;9.10;99.90
16871;DHT22;8552;48.120;-1.456;2023-04-24T06:30:49;9.10;99.90
16871;DHT22;8552;48.120;-1.456;2023-04-24T06:33:16;9.10;99.90
16871;DHT22;8552;48.120;-1.456;2023-04-24T06:35:42;9.10;99.90
16871;DHT22;8552;48.120;-1.456;2023-04-24T06:38:08;9.10;99.90
16871;DHT22;8552;48.120;-1.456;2023-04-24T06:40:33;9.10;99.90
16871;DHT22;8552;48.120;-1.456;2023-04-24T06:42:59;9.20;99.90
16871;DHT22;8552;48.120;-1.456;2023-04-24T06:45:28;9.30;99.90
16871;DHT22;8552;48.120;-1.456;2023-04-24T06:47:54;9.40;99.90
16871;DHT22;8552;48.120;-1.456;2023-04-24T06:50:20;9.60;99.90
16871;DHT22;8552;48.120;-1.456;2023-04-24T06:52:46;9.80;99.90
16871;DHT22;8552;48.120;-1.456;2023-04-24T06:55:11;9.90;99.90
16871;DHT22;8552;48.120;-1.456;2023-04-24T06:57:37;10.00;99.90
16871;DHT22;8552;48.120;-1.456;2023-04-24T07:00:04;10.20;99.90
16871;DHT22;8552;48.120;-1.456;2023-04-24T07:02:32;10.40;99.90
16871;DHT22;8552;48.120;-1.456;2023-04-24T07:04:57;10.40;99.90
16871;DHT22;8552;48.120;-1.456;2023-04-24T07:07:23;10.60;99.90
16871;DHT22;8552;48.120;-1.456;2023-04-24T07:09:49;10.60;99.90
16871;DHT22;8552;48.120;-1.456;2023-04-24T07:12:16;10.70;99.90
16871;DHT22;8552;48.120;-1.456;2023-04-24T07:14:42;10.80;99.90
16871;DHT22;8552;48.120;-1.456;2023-04-24T07:17:08;10.90;99.90
16871;DHT22;8552;48.120;-1.456;2023-04-24T07:19:34;11.00;99.90
16871;DHT22;8552;48.120;-1.456;2023-04-24T07:22:03;11.20;99.90
16871;DHT22;8552;48.120;-1.456;2023-04-24T07:24:29;11.20;99.90
16871;DHT22;8552;48.120;-1.456;2023-04-24T07:26:55;11.20;99.90
16871;DHT22;8552;48.120;-1.456;2023-04-24T07:29:20;11.20;99.90
16871;DHT22;8552;48.120;-1.456;2023-04-24T07:31:46;11.40;99.90
16871;DHT22;8552;48.120;-1.456;2023-04-24T07:34:12;11.40;99.90
16871;DHT22;8552;48.120;-1.456;2023-04-24T07:36:38;11.50;99.90
16871;DHT22;8552;48.120;-1.456;2023-04-24T07:39:04;11.60;99.90
16871;DHT22;8552;48.120;-1.456;2023-04-24T07:41:31;11.70;99.90
16871;DHT22;8552;48.120;-1.456;2023-04-24T07:43:57;11.80;99.90
16871;DHT22;8552;48.120;-1.456;2023-04-24T07:46:23;11.90;99.90
16871;DHT22;8552;48.120;-1.456;2023-04-24T07:48:50;12.00;99.90
16871;DHT22;8552;48.120;-1.456;2023-04-24T07:51:16;12.00;99.90
16871;DHT22;8552;48.120;-1.456;2023-04-24T07:53:42;12.10;99.90
16871;DHT22;8552;48.120;-1.456;2023-04-24T07:56:08;12.20;99.90
16871;DHT22;8552;48.120;-1.456;2023-04-24T07:58:34;12.20;99.90
16871;DHT22;8552;48.120;-1.456;2023-04-24T08:01:00;12.20;99.90
16871;DHT22;8552;48.120;-1.456;2023-04-24T08:03:26;12.30;99.90
16871;DHT22;8552;48.120;-1.456;2023-04-24T08:05:51;12.40;99.90
16871;DHT22;8552;48.120;-1.456;2023-04-24T08:08:22;12.50;99.90
16871;DHT22;8552;48.120;-1.456;2023-04-24T08:10:48;12.50;99.90
16871;DHT22;8552;48.120;-1.456;2023-04-24T08:13:14;12.60;99.90
16871;DHT22;8552;48.120;-1.456;2023-04-24T08:15:39;12.60;99.90
16871;DHT22;8552;48.120;-1.456;2023-04-24T08:18:05;12.80;99.90
16871;DHT22;8552;48.120;-1.456;2023-04-24T08:20:31;12.80;99.90
16871;DHT22;8552;48.120;-1.456;2023-04-24T08:22:57;12.70;99.90
16871;DHT22;8552;48.120;-1.456;2023-04-24T08:25:23;12.70;99.90
16871;DHT22;8552;48.120;-1.456;2023-04-24T08:27:50;12.70;99.90
16871;DHT22;8552;48.120;-1.456;2023-04-24T08:30:16;12.90;99.90
16871;DHT22;8552;48.120;-1.456;2023-04-24T08:32:42;12.90;99.90
16871;DHT22;8552;48.120;-1.456;2023-04-24T08:35:08;13.10;99.90
16871;DHT22;8552;48.120;-1.456;2023-04-24T08:37:35;13.20;99.90
16871;DHT22;8552;48.120;-1.456;2023-04-24T08:40:05;13.30;99.90
16871;DHT22;8552;48.120;-1.456;2023-04-24T08:42:32;13.40;99.90
16871;DHT22;8552;48.120;-1.456;2023-04-24T08:44:59;13.40;99.90
16871;DHT22;8552;48.120;-1.456;2023-04-24T08:47:25;13.40;99.90
16871;DHT22;8552;48.120;-1.456;2023-04-24T08:49:53;13.70;99.90
16871;DHT22;8552;48.120;-1.456;2023-04-24T08:52:20;13.90;99.90
16871;DHT22;8552;48.120;-1.456;2023-04-24T08:54:47;14.00;99.90
16871;DHT22;8552;48.120;-1.456;2023-04-24T08:57:17;14.00;99.90
16871;DHT22;8552;48.120;-1.456;2023-04-24T08:59:43;14.00;99.90
16871;DHT22;8552;48.120;-1.456;2023-04-24T09:02:10;14.00;99.90
16871;DHT22;8552;48.120;-1.456;2023-04-24T09:04:40;14.10;99.90
16871;DHT22;8552;48.120;-1.456;2023-04-24T09:07:11;14.10;99.90
16871;DHT22;8552;48.120;-1.456;2023-04-24T09:09:56;14.20;99.90
16871;DHT22;8552;48.120;-1.456;2023-04-24T09:12:24;14.30;99.90
16871;DHT22;8552;48.120;-1.456;2023-04-24T09:14:55;14.30;99.90
16871;DHT22;8552;48.120;-1.456;2023-04-24T09:17:22;14.50;99.90
16871;DHT22;8552;48.120;-1.456;2023-04-24T09:19:54;14.60;99.90
16871;DHT22;8552;48.120;-1.456;2023-04-24T09:22:24;14.80;99.90
16871;DHT22;8552;48.120;-1.456;2023-04-24T09:25:04;15.00;99.90
16871;DHT22;8552;48.120;-1.456;2023-04-24T09:27:45;15.10;99.90
16871;DHT22;8552;48.120;-1.456;2023-04-24T09:30:22;15.00;99.90
16871;DHT22;8552;48.120;-1.456;2023-04-24T09:33:18;15.20;99.90
16871;DHT22;8552;48.120;-1.456;2023-04-24T09:35:52;15.10;99.90
16871;DHT22;8552;48.120;-1.456;2023-04-24T09:38:37;15.00;99.90
16871;DHT22;8552;48.120;-1.456;2023-04-24T09:41:05;15.00;99.90
16871;DHT22;8552;48.120;-1.456;2023-04-24T09:43:48;15.30;99.90
16871;DHT22;8552;48.120;-1.456;2023-04-24T09:46:28;15.30;99.90
16871;DHT22;8552;48.120;-1.456;2023-04-24T09:49:21;15.40;99.90
16871;DHT22;8552;48.120;-1.456;2023-04-24T09:52:21;15.30;99.90
16871;DHT22;8552;48.120;-1.456;2023-04-24T09:55:11;15.40;99.90
16871;DHT22;8552;48.120;-1.456;2023-04-24T09:57:59;15.40;99.90
16871;DHT22;8552;48.120;-1.456;2023-04-24T10:00:41;15.30;99.90
16871;DHT22;8552;48.120;-1.456;2023-04-24T10:03:16;15.00;99.90
16871;DHT22;8552;48.120;-1.456;2023-04-24T10:05:49;14.90;99.90
16871;DHT22;8552;48.120;-1.456;2023-04-24T10:08:25;14.80;99.90
16871;DHT22;8552;48.120;-1.456;2023-04-24T10:11:27;14.60;99.90
16871;DHT22;8552;48.120;-1.456;2023-04-24T10:13:56;14.40;99.90
16871;DHT22;8552;48.120;-1.456;2023-04-24T10:16:28;14.30;99.90
16871;DHT22;8552;48.120;-1.456;2023-04-24T10:19:15;14.10;99.90
16871;DHT22;8552;48.120;-1.456;2023-04-24T10:21:45;14.10;99.90
16871;DHT22;8552;48.120;-1.456;2023-04-24T10:24:18;14.10;99.90
16871;DHT22;8552;48.120;-1.456;2023-04-24T10:32:37;14.20;99.90
16871;DHT22;8552;48.120;-1.456;2023-04-24T10:35:07;14.40;99.90
16871;DHT22;8552;48.120;-1.456;2023-04-24T10:37:39;14.70;99.90
16871;DHT22;8552;48.120;-1.456;2023-04-24T10:40:08;14.60;99.90
16871;DHT22;8552;48.120;-1.456;2023-04-24T10:42:34;14.70;99.90
16871;DHT22;8552;48.120;-1.456;2023-04-24T10:45:05;14.60;99.90
16871;DHT22;8552;48.120;-1.456;2023-04-24T10:47:40;14.70;99.90
16871;DHT22;8552;48.120;-1.456;2023-04-24T10:50:11;14.70;99.90
16871;DHT22;8552;48.120;-1.456;2023-04-24T10:52:48;14.70;99.90
16871;DHT22;8552;48.120;-1.456;2023-04-24T10:55:47;14.80;99.90
16871;DHT22;8552;48.120;-1.456;2023-04-24T10:58:14;14.90;99.90
16871;DHT22;8552;48.120;-1.456;2023-04-24T11:00:43;15.10;99.90
16871;DHT22;8552;48.120;-1.456;2023-04-24T11:03:26;15.20;99.90
16871;DHT22;8552;48.120;-1.456;2023-04-24T11:06:03;15.00;99.90
16871;DHT22;8552;48.120;-1.456;2023-04-24T11:08:38;14.80;99.90
16871;DHT22;8552;48.120;-1.456;2023-04-24T11:11:14;14.60;99.90
16871;DHT22;8552;48.120;-1.456;2023-04-24T11:16:29;14.70;99.90
16871;DHT22;8552;48.120;-1.456;2023-04-24T11:21:59;15.30;99.90
16871;DHT22;8552;48.120;-1.456;2023-04-24T11:24:39;15.20;99.90
16871;DHT22;8552;48.120;-1.456;2023-04-24T11:27:15;15.20;99.90
16871;DHT22;8552;48.120;-1.456;2023-04-24T11:34:49;15.00;99.90
16871;DHT22;8552;48.120;-1.456;2023-04-24T11:37:18;15.00;99.90
16871;DHT22;8552;48.120;-1.456;2023-04-24T11:39:44;14.90;99.90
16871;DHT22;8552;48.120;-1.456;2023-04-24T11:42:10;14.90;99.90
16871;DHT22;8552;48.120;-1.456;2023-04-24T11:44:42;14.80;99.90
16871;DHT22;8552;48.120;-1.456;2023-04-24T11:47:13;14.70;99.90
16871;DHT22;8552;48.120;-1.456;2023-04-24T11:52:20;14.40;99.90
16871;DHT22;8552;48.120;-1.456;2023-04-24T11:54:58;14.30;99.90
16871;DHT22;8552;48.120;-1.456;2023-04-24T11:57:27;14.30;99.90
16871;DHT22;8552;48.120;-1.456;2023-04-24T12:00:08;14.30;99.90
16871;DHT22;8552;48.120;-1.456;2023-04-24T12:02:36;14.10;99.90
16871;DHT22;8552;48.120;-1.456;2023-04-24T12:05:02;14.10;99.90
16871;DHT22;8552;48.120;-1.456;2023-04-24T12:07:41;14.40;99.90
16871;DHT22;8552;48.120;-1.456;2023-04-24T12:10:14;14.70;99.90
16871;DHT22;8552;48.120;-1.456;2023-04-24T12:13:14;15.00;99.90
16871;DHT22;8552;48.120;-1.456;2023-04-24T12:15:51;15.30;99.90
16871;DHT22;8552;48.120;-1.456;2023-04-24T12:18:22;15.90;99.90
16871;DHT22;8552;48.120;-1.456;2023-04-24T12:20:53;16.20;99.90
16871;DHT22;8552;48.120;-1.456;2023-04-24T12:23:56;15.90;99.00
16871;DHT22;8552;48.120;-1.456;2023-04-24T12:26:25;15.70;99.00
16871;DHT22;8552;48.120;-1.456;2023-04-24T12:28:53;15.60;98.40
16871;DHT22;8552;48.120;-1.456;2023-04-24T12:31:29;15.50;98.70
16871;DHT22;8552;48.120;-1.456;2023-04-24T12:33:57;15.40;98.20
16871;DHT22;8552;48.120;-1.456;2023-04-24T12:36:26;15.10;98.00
16871;DHT22;8552;48.120;-1.456;2023-04-24T12:38:56;14.90;99.00
16871;DHT22;8552;48.120;-1.456;2023-04-24T12:41:50;15.00;98.40
16871;DHT22;8552;48.120;-1.456;2023-04-24T12:44:16;15.00;99.70
16871;DHT22;8552;48.120;-1.456;2023-04-24T12:46:45;15.00;99.90
16871;DHT22;8552;48.120;-1.456;2023-04-24T12:49:30;15.30;98.80
16871;DHT22;8552;48.120;-1.456;2023-04-24T12:51:59;15.50;98.30
16871;DHT22;8552;48.120;-1.456;2023-04-24T12:54:25;15.70;98.70
16871;DHT22;8552;48.120;-1.456;2023-04-24T12:56:53;15.90;98.00
16871;DHT22;8552;48.120;-1.456;2023-04-24T12:59:21;16.10;99.00
16871;DHT22;8552;48.120;-1.456;2023-04-24T13:01:47;16.30;98.30
16871;DHT22;8552;48.120;-1.456;2023-04-24T13:04:15;16.40;98.50
16871;DHT22;8552;48.120;-1.456;2023-04-24T13:06:44;16.50;97.50
16871;DHT22;8552;48.120;-1.456;2023-04-24T13:09:10;16.50;97.50
16871;DHT22;8552;48.120;-1.456;2023-04-24T13:11:36;16.40;94.80
16871;DHT22;8552;48.120;-1.456;2023-04-24T13:14:05;16.40;94.80
16871;DHT22;8552;48.120;-1.456;2023-04-24T13:16:31;16.70;95.60
16871;DHT22;8552;48.120;-1.456;2023-04-24T13:18:56;16.80;95.60
16871;DHT22;8552;48.120;-1.456;2023-04-24T13:21:22;17.00;96.40
16871;DHT22;8552;48.120;-1.456;2023-04-24T13:23:50;17.10;94.80
16871;DHT22;8552;48.120;-1.456;2023-04-24T13:26:42;17.20;94.10
16871;DHT22;8552;48.120;-1.456;2023-04-24T13:29:21;17.30;94.50
16871;DHT22;8552;48.120;-1.456;2023-04-24T13:32:00;17.40;97.00
16871;DHT22;8552;48.120;-1.456;2023-04-24T13:34:51;17.20;92.80
16871;DHT22;8552;48.120;-1.456;2023-04-24T13:37:45;17.50;93.60
16871;DHT22;8552;48.120;-1.456;2023-04-24T13:47:16;18.50;92.40
16871;DHT22;8552;48.120;-1.456;2023-04-24T13:50:39;18.20;90.80
16871;DHT22;8552;48.120;-1.456;2023-04-24T14:18:29;18.30;92.20
16871;DHT22;8552;48.120;-1.456;2023-04-24T14:28:00;17.70;91.10
16871;DHT22;8552;48.120;-1.456;2023-04-24T14:37:27;17.50;92.20
16871;DHT22;8552;48.120;-1.456;2023-04-24T14:43:51;17.10;93.00
16871;DHT22;8552;48.120;-1.456;2023-04-24T14:46:40;17.00;94.90
16871;DHT22;8552;48.120;-1.456;2023-04-24T14:49:32;16.40;95.50
16871;DHT22;8552;48.120;-1.456;2023-04-24T14:52:13;16.00;99.50
16871;DHT22;8552;48.120;-1.456;2023-04-24T14:54:42;15.60;99.90
16871;DHT22;8552;48.120;-1.456;2023-04-24T14:57:08;15.10;99.90
16871;DHT22;8552;48.120;-1.456;2023-04-24T14:59:36;14.80;99.90
16871;DHT22;8552;48.120;-1.456;2023-04-24T15:02:05;14.70;99.90
16871;DHT22;8552;48.120;-1.456;2023-04-24T15:04:39;14.60;99.90
16871;DHT22;8552;48.120;-1.456;2023-04-24T15:07:05;14.60;99.90
16871;DHT22;8552;48.120;-1.456;2023-04-24T15:09:31;14.70;99.90
16871;DHT22;8552;48.120;-1.456;2023-04-24T15:11:58;14.90;99.90
16871;DHT22;8552;48.120;-1.456;2023-04-24T15:14:24;14.90;99.90
16871;DHT22;8552;48.120;-1.456;2023-04-24T15:16:49;14.80;99.90
16871;DHT22;8552;48.120;-1.456;2023-04-24T15:19:15;14.80;99.90
16871;DHT22;8552;48.120;-1.456;2023-04-24T15:21:41;15.00;99.90
16871;DHT22;8552;48.120;-1.456;2023-04-24T15:24:08;15.30;99.90
16871;DHT22;8552;48.120;-1.456;2023-04-24T15:26:34;15.40;99.90
16871;DHT22;8552;48.120;-1.456;2023-04-24T15:29:05;15.30;99.90
16871;DHT22;8552;48.120;-1.456;2023-04-24T15:31:31;15.30;99.90
16871;DHT22;8552;48.120;-1.456;2023-04-24T15:33:56;15.30;99.90
16871;DHT22;8552;48.120;-1.456;2023-04-24T15:36:22;15.20;99.90
16871;DHT22;8552;48.120;-1.456;2023-04-24T15:38:49;15.20;99.90
16871;DHT22;8552;48.120;-1.456;2023-04-24T15:41:15;15.00;99.90
16871;DHT22;8552;48.120;-1.456;2023-04-24T15:43:43;14.90;99.90
16871;DHT22;8552;48.120;-1.456;2023-04-24T15:46:09;15.00;99.90
16871;DHT22;8552;48.120;-1.456;2023-04-24T15:48:35;15.20;99.90
16871;DHT22;8552;48.120;-1.456;2023-04-24T15:51:01;15.50;99.90
16871;DHT22;8552;48.120;-1.456;2023-04-24T15:53:27;15.90;99.90
16871;DHT22;8552;48.120;-1.456;2023-04-24T15:55:53;15.90;99.90
16871;DHT22;8552;48.120;-1.456;2023-04-24T15:58:22;16.10;99.90
16871;DHT22;8552;48.120;-1.456;2023-04-24T16:00:48;16.50;99.90
16871;DHT22;8552;48.120;-1.456;2023-04-24T16:03:13;16.70;99.90
16871;DHT22;8552;48.120;-1.456;2023-04-24T16:05:39;16.70;99.90
16871;DHT22;8552;48.120;-1.456;2023-04-24T16:08:05;16.50;99.90
16871;DHT22;8552;48.120;-1.456;2023-04-24T16:10:31;16.50;99.90
16871;DHT22;8552;48.120;-1.456;2023-04-24T16:12:57;16.30;99.90
16871;DHT22;8552;48.120;-1.456;2023-04-24T16:15:25;16.10;99.90
16871;DHT22;8552;48.120;-1.456;2023-04-24T16:17:59;16.40;99.90
16871;DHT22;8552;48.120;-1.456;2023-04-24T16:21:05;16.60;99.90
16871;DHT22;8552;48.120;-1.456;2023-04-24T16:24:02;16.90;99.90
16871;DHT22;8552;48.120;-1.456;2023-04-24T16:56:08;13.90;99.90
16871;DHT22;8552;48.120;-1.456;2023-04-24T16:59:20;13.70;99.90
16871;DHT22;8552;48.120;-1.456;2023-04-24T17:02:35;13.70;99.90
16871;DHT22;8552;48.120;-1.456;2023-04-24T17:05:14;13.70;99.90
16871;DHT22;8552;48.120;-1.456;2023-04-24T17:11:29;13.80;99.90
16871;DHT22;8552;48.120;-1.456;2023-04-24T17:14:24;14.30;99.90
16871;DHT22;8552;48.120;-1.456;2023-04-24T17:16:54;14.30;99.90
16871;DHT22;8552;48.120;-1.456;2023-04-24T17:19:25;13.90;99.90
16871;DHT22;8552;48.120;-1.456;2023-04-24T17:22:08;13.40;99.90
16871;DHT22;8552;48.120;-1.456;2023-04-24T17:24:37;13.30;99.90
16871;DHT22;8552;48.120;-1.456;2023-04-24T17:27:03;13.30;99.90
16871;DHT22;8552;48.120;-1.456;2023-04-24T17:29:31;12.80;99.90
16871;DHT22;8552;48.120;-1.456;2023-04-24T17:34:57;12.80;99.90
16871;DHT22;8552;48.120;-1.456;2023-04-24T17:37:35;12.80;99.90